createdAt,value
2019-04-30T00:02:11.201Z,10.23
2019-04-30T00:04:50.500Z,9.60
2019-04-30T00:07:19.229Z,10.40
2019-04-30T00:09:49.212Z,9.00
2019-04-30T00:12:18.239Z,9.57
2019-04-30T00:14:46.721Z,9.23
2019-04-30T00:17:19.261Z,8.70
2019-04-30T00:19:45.944Z,9.13
2019-04-30T00:22:15.840Z,9.10
2019-04-30T00:24:49.757Z,8.93
2019-04-30T00:27:15.183Z,8.73
2019-04-30T00:29:45.641Z,9.50
2019-04-30T00:32:15.793Z,9.23
2019-04-30T00:34:45.598Z,9.40
2019-04-30T00:37:18.538Z,9.23
2019-04-30T00:39:50.692Z,8.90
2019-04-30T00:42:17.251Z,9.03
2019-04-30T00:44:45.642Z,9.07
2019-04-30T00:47:15.422Z,8.90
2019-04-30T00:49:44.849Z,8.60
2019-04-30T00:52:15.400Z,9.03
2019-04-30T00:54:45.219Z,8.67
2019-04-30T00:57:15.188Z,8.30
2019-04-30T00:59:47.779Z,8.60
2019-04-30T01:02:32.551Z,9.50
2019-04-30T01:05:11.510Z,8.90
2019-04-30T01:07:48.119Z,8.47
2019-04-30T01:10:11.977Z,8.03
2019-04-30T01:12:46.871Z,7.57
2019-04-30T01:15:14.500Z,7.87
2019-04-30T01:17:45.313Z,6.97
2019-04-30T01:20:12.154Z,7.27
2019-04-30T01:22:40.695Z,7.17
2019-04-30T01:25:13.483Z,6.50
2019-04-30T01:27:45.782Z,6.60
2019-04-30T01:30:17.838Z,6.43
2019-04-30T01:32:43.825Z,6.20
2019-04-30T01:35:12.290Z,5.90
2019-04-30T01:37:40.823Z,6.43
2019-04-30T01:40:13.527Z,5.83
2019-04-30T01:42:47.527Z,6.37
2019-04-30T01:45:10.289Z,6.07
2019-04-30T01:47:39.687Z,6.20
2019-04-30T01:50:09.217Z,5.93
2019-04-30T01:52:53.155Z,5.53
2019-04-30T01:55:30.155Z,5.33
2019-04-30T01:58:03.215Z,5.53
2019-04-30T02:00:39.208Z,5.30
2019-04-30T02:03:08.777Z,4.90
2019-04-30T02:05:38.619Z,5.47
2019-04-30T02:08:08.435Z,5.23
2019-04-30T02:10:37.410Z,4.77
2019-04-30T02:13:06.114Z,5.13
2019-04-30T02:15:34.667Z,5.27
2019-04-30T02:18:03.388Z,5.17
2019-04-30T02:20:31.854Z,4.70
2019-04-30T02:23:00.583Z,4.30
2019-04-30T02:25:29.553Z,4.27
2019-04-30T02:27:59.049Z,4.10
2019-04-30T02:30:30.831Z,4.20
2019-04-30T02:33:00.467Z,4.10
2019-04-30T02:35:30.175Z,4.30
2019-04-30T02:38:15.391Z,4.03
2019-04-30T02:40:44.900Z,3.67
2019-04-30T02:43:14.379Z,4.40
2019-04-30T02:45:44.200Z,4.10
2019-04-30T02:48:13.747Z,4.27
2019-04-30T02:50:43.146Z,4.00
2019-04-30T02:53:31.360Z,3.90
2019-04-30T02:56:02.626Z,3.57
2019-04-30T02:58:30.019Z,3.53
2019-04-30T03:01:00.252Z,4.13
2019-04-30T03:03:29.945Z,3.40
2019-04-30T03:05:59.568Z,3.60
2019-04-30T03:08:29.728Z,3.43
2019-04-30T03:11:00.060Z,4.00
2019-04-30T03:13:29.967Z,3.50
2019-04-30T03:15:59.339Z,3.10
2019-04-30T03:18:32.404Z,3.57
2019-04-30T03:21:11.437Z,3.23
2019-04-30T03:23:40.010Z,3.43
2019-04-30T03:26:09.648Z,3.27
2019-04-30T03:28:39.714Z,3.07
2019-04-30T03:31:11.948Z,3.10
2019-04-30T03:33:42.312Z,3.13
2019-04-30T03:36:12.535Z,3.90
2019-04-30T03:38:39.665Z,3.20
2019-04-30T03:41:09.732Z,3.43
2019-04-30T03:43:40.008Z,2.93
2019-04-30T03:46:10.208Z,2.93
2019-04-30T03:48:39.539Z,2.87
2019-04-30T03:51:10.643Z,2.73
2019-04-30T03:53:39.705Z,2.90
2019-04-30T03:56:09.461Z,3.20
2019-04-30T03:58:39.625Z,3.50
2019-04-30T04:01:24.822Z,3.10
2019-04-30T04:04:00.383Z,3.30
2019-04-30T04:06:41.665Z,4.13
2019-04-30T04:09:11.750Z,4.27
2019-04-30T04:11:42.040Z,4.87
2019-04-30T04:14:10.496Z,4.30
2019-04-30T04:16:41.036Z,4.37
2019-04-30T04:19:09.622Z,4.50
2019-04-30T04:21:39.360Z,4.27
2019-04-30T04:24:10.442Z,5.13
2019-04-30T04:26:43.333Z,5.77
2019-04-30T04:29:09.503Z,6.20
2019-04-30T04:31:39.515Z,6.17
2019-04-30T04:34:09.345Z,6.73
2019-04-30T04:36:39.991Z,6.73
2019-04-30T04:39:09.875Z,6.80
2019-04-30T04:41:39.864Z,7.37
2019-04-30T04:44:12.577Z,7.10
2019-04-30T04:46:40.170Z,7.10
2019-04-30T04:49:09.125Z,6.90
2019-04-30T04:51:41.837Z,6.83
2019-04-30T04:54:10.383Z,7.70
2019-04-30T04:56:39.956Z,7.30
2019-04-30T04:59:10.248Z,7.87
2019-04-30T05:01:38.879Z,10.00
2019-04-30T05:04:11.471Z,9.23
2019-04-30T05:06:39.475Z,9.13
2019-04-30T05:09:09.743Z,10.40
2019-04-30T05:11:39.566Z,11.30
2019-04-30T05:14:08.351Z,10.30
2019-04-30T05:16:38.937Z,11.77
2019-04-30T05:19:08.913Z,11.27
2019-04-30T05:21:42.721Z,11.87
2019-04-30T05:24:09.058Z,13.77
2019-04-30T05:26:38.679Z,13.70
2019-04-30T05:29:09.438Z,14.87
2019-04-30T05:31:38.505Z,13.90
2019-04-30T05:34:10.112Z,15.57
2019-04-30T05:36:39.150Z,16.30
2019-04-30T05:39:08.663Z,14.53
2019-04-30T05:41:38.643Z,15.77
2019-04-30T05:44:08.885Z,15.70
2019-04-30T05:46:39.650Z,16.57
2019-04-30T05:49:09.026Z,16.80
2019-04-30T05:51:38.788Z,16.90
2019-04-30T05:54:09.119Z,17.50
2019-04-30T05:56:39.528Z,17.50
2019-04-30T05:59:09.009Z,18.27
2019-04-30T06:01:39.505Z,18.60
2019-04-30T06:04:09.408Z,19.07
2019-04-30T06:06:38.894Z,18.33
2019-04-30T06:09:33.245Z,18.73
2019-04-30T06:12:13.192Z,17.63
2019-04-30T06:14:48.988Z,19.03
2019-04-30T06:17:15.458Z,16.97
2019-04-30T06:19:43.973Z,18.30
2019-04-30T06:22:12.860Z,18.43
2019-04-30T06:24:41.647Z,17.20
2019-04-30T06:27:10.885Z,16.37
2019-04-30T06:29:39.939Z,16.43
2019-04-30T06:32:08.865Z,16.63
2019-04-30T06:34:39.514Z,17.10
2019-04-30T06:37:09.669Z,17.30
2019-04-30T06:39:38.780Z,16.10
2019-04-30T06:42:12.232Z,16.50
2019-04-30T06:44:41.341Z,15.87
2019-04-30T06:47:09.169Z,15.73
2019-04-30T06:49:39.272Z,16.03
2019-04-30T06:52:19.593Z,15.77
2019-04-30T06:54:39.764Z,16.13
2019-04-30T06:57:09.821Z,16.10
2019-04-30T06:59:39.599Z,15.87
2019-04-30T07:02:09.016Z,15.97
2019-04-30T07:04:40.032Z,17.20
2019-04-30T07:07:09.168Z,15.57
2019-04-30T07:09:53.214Z,17.27
2019-04-30T07:12:27.628Z,15.23
2019-04-30T07:14:53.084Z,15.40
2019-04-30T07:17:21.556Z,16.07
2019-04-30T07:19:55.706Z,17.60
2019-04-30T07:22:36.150Z,17.27
2019-04-30T07:24:50.522Z,16.90
2019-04-30T07:27:24.013Z,17.00
2019-04-30T07:29:49.672Z,16.63
2019-04-30T07:32:19.761Z,16.07
2019-04-30T07:34:49.500Z,16.03
2019-04-30T07:37:24.047Z,16.00
2019-04-30T07:39:49.326Z,16.10
2019-04-30T07:42:19.236Z,17.00
2019-04-30T07:44:50.073Z,16.50
2019-04-30T07:47:19.488Z,15.70
2019-04-30T07:49:52.998Z,16.27
2019-04-30T07:52:21.238Z,15.60
2019-04-30T07:54:51.587Z,16.00
2019-04-30T07:57:19.353Z,17.20
2019-04-30T07:59:49.893Z,17.17
2019-04-30T08:02:20.789Z,16.77
2019-04-30T08:04:59.870Z,17.30
2019-04-30T08:07:29.777Z,16.37
2019-04-30T08:09:59.055Z,16.80
2019-04-30T08:12:31.958Z,15.43
2019-04-30T08:14:59.473Z,15.80
2019-04-30T08:17:28.943Z,15.83
2019-04-30T08:19:58.761Z,16.60
2019-04-30T08:22:29.612Z,16.47
2019-04-30T08:24:58.669Z,17.03
2019-04-30T08:27:29.478Z,16.67
2019-04-30T08:29:59.227Z,16.07
2019-04-30T08:32:28.973Z,16.83
2019-04-30T08:35:00.961Z,16.70
2019-04-30T08:37:28.862Z,16.50
2019-04-30T08:39:59.775Z,17.87
2019-04-30T08:42:31.622Z,16.07
2019-04-30T08:44:58.560Z,17.47
2019-04-30T08:47:29.094Z,17.30
2019-04-30T08:50:01.622Z,17.10
2019-04-30T08:52:27.515Z,17.23
2019-04-30T08:54:56.003Z,17.27
2019-04-30T08:57:24.478Z,17.83
2019-04-30T08:59:52.925Z,16.47
2019-04-30T09:02:21.776Z,16.30
2019-04-30T09:04:51.911Z,16.73
2019-04-30T09:07:20.387Z,16.50
2019-04-30T09:09:48.998Z,16.77
2019-04-30T09:12:19.527Z,16.77
2019-04-30T09:14:49.111Z,16.60
2019-04-30T09:17:19.674Z,16.13
2019-04-30T09:19:48.955Z,16.87
2019-04-30T09:22:19.533Z,16.20
2019-04-30T09:24:49.784Z,15.97
2019-04-30T09:27:19.532Z,17.60
2019-04-30T09:29:49.260Z,18.00
2019-04-30T09:32:19.320Z,16.93
2019-04-30T09:34:48.834Z,17.13
2019-04-30T09:37:18.672Z,17.97
2019-04-30T09:39:49.432Z,16.57
2019-04-30T09:42:19.533Z,17.23
2019-04-30T09:44:49.260Z,18.60
2019-04-30T09:47:20.167Z,17.20
2019-04-30T09:49:49.333Z,19.07
2019-04-30T09:52:19.357Z,18.30
2019-04-30T09:54:50.108Z,21.53
2019-04-30T09:57:19.293Z,19.90
2019-04-30T09:59:48.603Z,20.37
2019-04-30T10:02:19.121Z,19.20
2019-04-30T10:04:48.411Z,18.17
2019-04-30T10:07:19.363Z,17.43
2019-04-30T10:09:50.649Z,17.13
2019-04-30T10:12:19.523Z,17.03
2019-04-30T10:14:49.507Z,16.47
2019-04-30T10:17:22.724Z,16.50
2019-04-30T10:19:51.180Z,16.93
2019-04-30T10:22:19.802Z,16.30
2019-04-30T10:24:49.448Z,17.27
2019-04-30T10:27:19.062Z,18.20
2019-04-30T10:29:49.279Z,16.90
2019-04-30T10:32:18.697Z,17.03
2019-04-30T10:34:47.480Z,16.00
2019-04-30T10:37:15.967Z,15.77
2019-04-30T10:39:44.530Z,16.17
2019-04-30T10:42:13.041Z,16.90
2019-04-30T10:44:41.513Z,16.90
2019-04-30T10:47:10.105Z,15.83
2019-04-30T10:49:38.992Z,15.77
2019-04-30T10:52:09.334Z,16.13
2019-04-30T10:54:38.889Z,17.10
2019-04-30T10:57:08.688Z,15.30
2019-04-30T10:59:37.710Z,15.47
2019-04-30T11:02:06.345Z,16.63
2019-04-30T11:04:34.887Z,16.33
2019-04-30T11:07:03.506Z,15.47
2019-04-30T11:09:32.653Z,16.17
2019-04-30T11:12:03.027Z,16.03
2019-04-30T11:14:31.775Z,15.27
2019-04-30T11:17:00.574Z,15.23
2019-04-30T11:19:29.654Z,15.53
2019-04-30T11:21:58.500Z,16.03
2019-04-30T11:24:36.633Z,15.93
2019-04-30T11:26:59.515Z,16.93
2019-04-30T11:29:30.547Z,15.83
2019-04-30T11:31:59.540Z,16.93
2019-04-30T11:34:28.455Z,16.33
2019-04-30T11:36:57.147Z,15.13
2019-04-30T11:39:26.548Z,15.07
2019-04-30T11:41:55.501Z,14.73
2019-04-30T11:44:30.826Z,15.03
2019-04-30T11:47:00.841Z,14.63
2019-04-30T11:49:29.823Z,14.83
2019-04-30T11:51:58.623Z,15.03
2019-04-30T11:54:27.399Z,14.73
2019-04-30T11:56:55.931Z,15.67
2019-04-30T11:59:24.404Z,14.30
2019-04-30T12:01:54.523Z,15.93
2019-04-30T12:04:23.010Z,15.87
2019-04-30T12:06:53.091Z,15.10
2019-04-30T12:09:41.329Z,14.73
2019-04-30T12:12:09.799Z,16.20
2019-04-30T12:14:39.581Z,14.63
2019-04-30T12:17:08.433Z,15.13
2019-04-30T12:19:38.382Z,15.03
2019-04-30T12:22:07.141Z,15.27
2019-04-30T12:24:35.617Z,14.97
2019-04-30T12:27:04.246Z,15.23
2019-04-30T12:29:32.717Z,15.20
2019-04-30T12:32:01.197Z,14.57
2019-04-30T12:34:29.673Z,14.43
2019-04-30T12:36:59.631Z,13.63
2019-04-30T12:39:29.969Z,14.00
2019-04-30T12:41:59.254Z,15.63
2019-04-30T12:44:28.720Z,14.00
2019-04-30T12:46:58.647Z,14.50
2019-04-30T12:49:28.801Z,14.17
2019-04-30T12:52:02.135Z,14.57
2019-04-30T12:54:35.406Z,13.63
2019-04-30T12:57:11.805Z,13.03
2019-04-30T12:59:40.295Z,13.73
2019-04-30T13:02:09.150Z,14.20
2019-04-30T13:04:39.377Z,14.20
2019-04-30T13:07:10.502Z,13.43
2019-04-30T13:09:39.786Z,13.13
2019-04-30T13:12:10.231Z,13.03
2019-04-30T13:14:51.025Z,11.97
2019-04-30T13:17:09.105Z,12.70
2019-04-30T13:19:37.561Z,13.20
2019-04-30T13:22:06.135Z,13.63
2019-04-30T13:24:34.951Z,13.40
2019-04-30T13:27:03.609Z,12.63
2019-04-30T13:29:36.735Z,13.20
2019-04-30T13:32:05.286Z,12.83
2019-04-30T13:34:41.303Z,13.80
2019-04-30T13:37:09.855Z,13.93
2019-04-30T13:39:50.181Z,13.47
2019-04-30T13:42:17.549Z,13.37
2019-04-30T13:44:42.099Z,13.80
2019-04-30T13:47:10.980Z,13.10
2019-04-30T13:49:39.611Z,12.97
2019-04-30T13:52:08.104Z,14.80
2019-04-30T13:54:36.571Z,13.50
2019-04-30T13:57:05.176Z,13.77
2019-04-30T13:59:33.669Z,13.03
2019-04-30T14:02:02.204Z,12.87
2019-04-30T14:04:41.386Z,13.83
2019-04-30T14:07:14.364Z,13.37
2019-04-30T14:09:42.852Z,13.30
2019-04-30T14:12:11.335Z,12.60
2019-04-30T14:14:39.833Z,12.77
2019-04-30T14:17:09.223Z,12.50
2019-04-30T14:19:38.018Z,12.60
2019-04-30T14:22:08.928Z,13.00
2019-04-30T14:24:37.366Z,12.37
2019-04-30T14:27:05.967Z,12.33
2019-04-30T14:29:34.437Z,12.47
2019-04-30T14:32:03.055Z,12.73
2019-04-30T14:34:31.533Z,12.50
2019-04-30T14:37:00.105Z,13.43
2019-04-30T14:39:29.181Z,12.90
2019-04-30T14:42:00.091Z,13.07
2019-04-30T14:44:31.890Z,13.27
2019-04-30T14:47:02.079Z,12.97
2019-04-30T14:49:35.853Z,12.63
2019-04-30T14:52:04.731Z,12.17
2019-04-30T14:54:41.087Z,12.43
2019-04-30T14:57:11.215Z,12.83
2019-04-30T15:00:01.968Z,12.70
2019-04-30T15:02:31.202Z,12.73
2019-04-30T15:04:59.658Z,12.60
2019-04-30T15:07:29.548Z,12.60
2019-04-30T15:09:58.220Z,13.83
2019-04-30T15:12:26.678Z,14.97
2019-04-30T15:14:55.163Z,13.33
2019-04-30T15:17:23.709Z,13.53
2019-04-30T15:19:54.487Z,13.10
2019-04-30T15:22:22.420Z,13.10
2019-04-30T15:24:50.879Z,13.53
2019-04-30T15:27:19.502Z,12.87
2019-04-30T15:29:56.619Z,13.87
2019-04-30T15:32:18.633Z,12.87
2019-04-30T15:34:49.042Z,12.73
2019-04-30T15:37:21.738Z,13.10
2019-04-30T15:39:48.992Z,12.70
2019-04-30T15:42:19.055Z,13.33
2019-04-30T15:44:49.477Z,12.80
2019-04-30T15:47:18.911Z,12.73
2019-04-30T15:49:47.751Z,12.83
2019-04-30T15:52:16.333Z,13.43
2019-04-30T15:54:45.194Z,12.63
2019-04-30T15:57:13.741Z,12.67
2019-04-30T15:59:42.294Z,13.23
2019-04-30T16:02:12.764Z,13.30
2019-04-30T16:04:54.770Z,13.40
2019-04-30T16:07:23.268Z,12.87
2019-04-30T16:09:53.455Z,12.90
2019-04-30T16:12:23.563Z,13.23
2019-04-30T16:14:52.057Z,12.73
2019-04-30T16:17:22.201Z,11.97
2019-04-30T16:19:50.759Z,12.47
2019-04-30T16:22:20.903Z,11.90
2019-04-30T16:24:49.606Z,11.73
2019-04-30T16:27:19.212Z,12.93
2019-04-30T16:29:49.795Z,13.93
2019-04-30T16:32:19.150Z,14.53
2019-04-30T16:34:49.423Z,14.30
2019-04-30T16:37:19.960Z,14.43
2019-04-30T16:39:48.422Z,13.77
2019-04-30T16:42:18.883Z,14.77
2019-04-30T16:44:47.522Z,13.67
2019-04-30T16:47:16.987Z,13.23
2019-04-30T16:49:45.786Z,13.13
2019-04-30T16:52:14.460Z,12.90
2019-04-30T16:54:42.957Z,12.33
2019-04-30T16:57:11.486Z,12.97
2019-04-30T16:59:41.625Z,12.10
2019-04-30T17:02:11.353Z,12.47
2019-04-30T17:04:41.521Z,12.00
2019-04-30T17:07:29.965Z,12.10
2019-04-30T17:10:00.075Z,12.27
2019-04-30T17:12:30.193Z,11.90
2019-04-30T17:15:16.508Z,11.97
2019-04-30T17:17:44.995Z,11.90
2019-04-30T17:20:14.591Z,11.77
2019-04-30T17:22:43.055Z,11.80
2019-04-30T17:25:12.179Z,12.40
2019-04-30T17:27:40.651Z,11.73
2019-04-30T17:30:11.063Z,12.33
2019-04-30T17:32:39.769Z,12.07
2019-04-30T17:35:09.112Z,11.73
2019-04-30T17:37:37.736Z,11.43
2019-04-30T17:40:09.460Z,12.47
2019-04-30T17:42:38.194Z,11.33
2019-04-30T17:45:09.468Z,11.93
2019-04-30T17:47:38.171Z,10.87
2019-04-30T17:50:08.916Z,11.87
2019-04-30T17:52:37.807Z,11.30
2019-04-30T17:55:09.752Z,11.60
2019-04-30T17:57:40.240Z,11.17
2019-04-30T18:00:18.963Z,11.03
2019-04-30T18:02:40.967Z,10.80
2019-04-30T18:05:11.422Z,11.10
2019-04-30T18:07:40.036Z,11.10
2019-04-30T18:10:10.733Z,11.17
2019-04-30T18:12:39.292Z,10.93
2019-04-30T18:15:12.488Z,12.07
2019-04-30T18:17:42.165Z,11.17
2019-04-30T18:20:12.504Z,10.77
2019-04-30T18:22:42.966Z,10.87
2019-04-30T18:25:19.350Z,10.87
2019-04-30T18:27:52.458Z,11.30
2019-04-30T18:30:22.971Z,12.03
2019-04-30T18:32:51.419Z,11.13
2019-04-30T18:35:20.336Z,10.97
2019-04-30T18:37:48.947Z,10.67
2019-04-30T18:40:18.665Z,11.97
2019-04-30T18:42:49.480Z,11.97
2019-04-30T18:45:19.409Z,11.37
2019-04-30T18:47:48.193Z,11.87
2019-04-30T18:50:17.162Z,11.27
2019-04-30T18:52:45.977Z,11.30
2019-04-30T18:55:14.527Z,12.40
2019-04-30T18:57:55.785Z,12.00
2019-04-30T19:00:15.559Z,11.83
2019-04-30T19:02:44.393Z,11.07
2019-04-30T19:05:19.055Z,11.80
2019-04-30T19:07:50.920Z,11.00
2019-04-30T19:10:23.981Z,12.00
2019-04-30T19:13:00.005Z,12.10
2019-04-30T19:16:12.740Z,11.73
2019-04-30T19:18:24.291Z,11.30
2019-04-30T19:20:57.267Z,11.67
2019-04-30T19:23:25.730Z,11.17
2019-04-30T19:25:54.204Z,11.50
2019-04-30T19:28:22.696Z,11.57
2019-04-30T19:30:57.932Z,11.17
2019-04-30T19:33:21.382Z,11.80
2019-04-30T19:35:50.609Z,10.80
2019-04-30T19:38:19.369Z,10.80
2019-04-30T19:40:49.388Z,10.73
2019-04-30T19:43:18.057Z,11.70
2019-04-30T19:45:46.539Z,11.00
2019-04-30T19:48:16.194Z,11.37
2019-04-30T19:50:44.880Z,11.37
2019-04-30T19:53:13.421Z,11.03
2019-04-30T19:55:41.921Z,11.23
2019-04-30T19:58:14.489Z,11.13
2019-04-30T20:00:40.653Z,10.53
2019-04-30T20:03:09.128Z,11.13
2019-04-30T20:05:39.450Z,10.80
2019-04-30T20:08:08.994Z,10.90
2019-04-30T20:10:39.724Z,10.53
2019-04-30T20:13:08.180Z,11.00
2019-04-30T20:15:36.658Z,10.57
2019-04-30T20:18:05.119Z,10.13
2019-04-30T20:20:34.076Z,10.43
2019-04-30T20:23:02.543Z,10.37
2019-04-30T20:25:31.293Z,10.27
2019-04-30T20:27:59.759Z,10.17
2019-04-30T20:30:29.227Z,9.97
2019-04-30T20:32:59.425Z,10.23
2019-04-30T20:35:28.400Z,10.00
2019-04-30T20:38:13.492Z,9.30
2019-04-30T20:40:47.607Z,9.90
2019-04-30T20:43:13.801Z,9.93
2019-04-30T20:45:42.254Z,9.53
2019-04-30T20:48:10.825Z,9.63
2019-04-30T20:50:39.374Z,9.43
2019-04-30T20:53:08.826Z,8.90
2019-04-30T20:55:38.815Z,9.67
2019-04-30T20:58:09.502Z,9.70
2019-04-30T21:00:37.983Z,9.53
2019-04-30T21:03:06.584Z,10.13
2019-04-30T21:05:35.133Z,9.73
2019-04-30T21:08:03.796Z,9.60
2019-04-30T21:10:32.285Z,10.67
2019-04-30T21:13:00.761Z,10.67
2019-04-30T21:15:29.738Z,10.00
2019-04-30T21:17:58.761Z,10.70
2019-04-30T21:20:28.850Z,9.93
2019-04-30T21:22:59.503Z,10.00
2019-04-30T21:25:29.173Z,10.60
2019-04-30T21:27:59.744Z,10.50
2019-04-30T21:30:28.049Z,11.40
2019-04-30T21:33:00.946Z,10.73
2019-04-30T21:35:33.989Z,11.00
2019-04-30T21:38:02.610Z,12.50
2019-04-30T21:40:31.384Z,11.80
2019-04-30T21:42:59.858Z,13.47
2019-04-30T21:45:29.161Z,13.47
2019-04-30T21:47:58.833Z,14.23
2019-04-30T21:50:29.622Z,13.20
2019-04-30T21:52:59.750Z,13.70
2019-04-30T21:55:29.567Z,13.10
2019-04-30T21:57:59.391Z,12.53
2019-04-30T22:00:36.639Z,13.73
2019-04-30T22:03:07.031Z,14.80
2019-04-30T22:05:35.739Z,13.97
2019-04-30T22:08:04.473Z,14.30
2019-04-30T22:10:33.089Z,14.70
2019-04-30T22:13:01.565Z,13.43
2019-04-30T22:15:30.044Z,13.80
2019-04-30T22:17:58.520Z,13.23
2019-04-30T22:20:29.073Z,14.90
2019-04-30T22:22:57.447Z,14.10
2019-04-30T22:25:25.921Z,13.83
2019-04-30T22:27:54.420Z,14.80
2019-04-30T22:30:22.968Z,14.10
2019-04-30T22:32:51.429Z,14.10
2019-04-30T22:35:27.005Z,14.13
2019-04-30T22:38:12.417Z,14.67
2019-04-30T22:40:40.975Z,15.20
2019-04-30T22:43:09.608Z,14.90
2019-04-30T22:45:42.685Z,15.07
2019-04-30T22:48:11.161Z,15.63
2019-04-30T22:50:39.634Z,15.17
2019-04-30T22:53:08.116Z,15.87
2019-04-30T22:55:36.657Z,14.13
2019-04-30T22:58:05.489Z,15.57
2019-04-30T23:00:35.587Z,16.33
2019-04-30T23:03:06.248Z,14.20
2019-04-30T23:05:34.722Z,14.13
2019-04-30T23:08:03.538Z,14.80
2019-04-30T23:10:32.003Z,16.20
2019-04-30T23:13:00.474Z,14.87
2019-04-30T23:15:28.969Z,15.73
2019-04-30T23:17:57.447Z,15.57
2019-04-30T23:20:25.985Z,15.80
2019-04-30T23:22:54.496Z,15.80
2019-04-30T23:25:22.959Z,15.83
2019-04-30T23:27:51.551Z,16.53
2019-04-30T23:30:20.240Z,15.70
2019-04-30T23:32:48.729Z,14.83
2019-04-30T23:35:17.279Z,15.20
2019-04-30T23:37:45.748Z,15.17
2019-04-30T23:40:32.133Z,15.03
2019-04-30T23:43:00.586Z,14.60
2019-04-30T23:45:29.403Z,15.27
2019-04-30T23:47:57.875Z,14.93
2019-04-30T23:50:26.486Z,13.97
2019-04-30T23:52:54.967Z,15.83
2019-04-30T23:55:23.503Z,15.93
2019-04-30T23:57:52.002Z,15.40
